UKBBLBBG

Guest
Details From UKBB - Boryspil
To LBBG - Burgas
Flight Number -
Tags Generated
Created
Modified
Stats Distance 489 nm / 906 km
Max Altitude 0 ft / 0 m
Waypoints 4
Social Downloads 3
Likes 0
Share VATSIM

Download

Looking for another format? Having issues loading an existing format? Contact us
Advertisement - Login to hide

Notes

Generated

Route

UKBB BABIB BGS LBBG

ID Type Via Altitude Latitude Longitude Leg Dist Tot Dist Heading (true) Name
O UKBB APT - 0 ft / 0 m 50.36056˚ 30.90660˚ - 0 nm - -
BABIB FIX - 0 ft / 0 m 46.17861˚ 29.05139˚ 261 nm 261 nm 197° / 196° -
BGS VOR - 0 ft / 0 m 42.57106˚ 27.51986˚ 226 nm 488 nm 197° / 196° BURGAS VOR-DME
O LBBG APT - 0 ft / 0 m 42.55983˚ 27.50160˚ 1 nm 489 nm 230° / 230° -

Altitude Profile

Advertisement - Login to hide

Weather


0- 5 10 15 20 25 30 35+ Temperature / ° C

Clouds and Precipitation
Forecast for 2017-12-12 12:00 UTC. Updated an hour ago

Ground ~20,000 ft ~40,000 ft Winds

UKBB

Details ICAO UKBB (KBP)
Name Boryspil
Region Ukraine
Timezone Europe/Kiev (UTC+2.0)
Stats Elevation 421 ft / 128 m (AMSL)
Location 50.339472° 30.892903°
Runways 2
Magnetic Variation 7.668° E

METAR

UKBB 121230Z 19004MPS CAVOK 02/01 Q1009 R18L/811050 NOSIG

Decode

TAF

TAF TAF UKBB 121101Z 1212/1312 19005MPS 9999 BKN015 TEMPO 1212/1220 22006G11MPS 3000 -SHRA BR BKN004 SCT020CB TEMPO 1220/1307 23003MPS 1000 -DZ BR OVC002 BECMG 1308/1309 34004G09MPS TX04/1212Z TN00/1306Z

Decode

Departure Runways

ID Width Length Bearing (true) Bearing (mag) Surface Threshold Offset Overrun Length
18L 197 ft / 60 m 13,152 ft / 4,009 m 182.72° 175.05° Concrete 0 ft / 0 m 295 ft / 90 m
18R 207 ft / 63 m 11,470 ft / 3,496 m 182.62° 174.95° Concrete 0 ft / 0 m 164 ft / 50 m
36L 207 ft / 63 m 11,470 ft / 3,496 m 2.62° 354.95° Concrete 0 ft / 0 m 164 ft / 50 m
36R 197 ft / 60 m 13,152 ft / 4,009 m 2.72° 355.05° Concrete 0 ft / 0 m 295 ft / 90 m

LBBG

Details ICAO LBBG (BOJ)
Name Burgas
Region Bulgaria
Timezone Europe/Sofia (UTC+2.0)
Stats Elevation 135 ft / 41 m (AMSL)
Location 42.570130° 27.515240°
Runways 1
Magnetic Variation 5.502° E

METAR

LBBG 121230Z 27013KT CAVOK 15/07 Q1017 NOSIG

Decode

TAF

TAF TAF LBBG 121100Z 1212/1312 27016KT CAVOK BECMG 1218/1220 24006KT TEMPO 1304/1307 5000 BR

Decode

Destination Runways

ID Width Length Bearing (true) Bearing (mag) Surface Threshold Offset Overrun Length
04 148 ft / 45 m 10,502 ft / 3,201 m 44.28° 38.78° Concrete 0 ft / 0 m 190 ft / 58 m
22 148 ft / 45 m 10,502 ft / 3,201 m 224.29° 218.79° Concrete 0 ft / 0 m 190 ft / 58 m

Approach Navaids

Runway Type Ident Frequency Range Bearing (true) Bearing (mag) Slope Elevation
22 Localiser IBG 110.30 MHz 18 nm / 33 km 224.26° 218.76° - 135 ft / 41 m (AMSL)
22 Glidescope IBG 110.30 MHz 10 nm / 19 km 224.28° 218.78° 3.00° 135 ft / 41 m (AMSL)